ENT7047 EPWA-DTTJ
Flight info
| Callsign | ENT7047 |
|---|---|
| Flight time | 3h 24m |
| Altitude | 38000 |
| Route | EVINA DCT NAVUR DCT BAVOK DCT MIKOV DCT INSAX DCT PETOV DCT SENTI/N0447F370 DCT RALAK G362 TRIFA |
| Aircraft | B738/M-SDFGHIJ1RWXY/EB1 |
Departure
| Time | 2026-05-07 04:14 |
|---|---|
| Airport | Warsaw Chopin Airport (EPWA) |
Arrival
| Time | 2026-05-07 07:38 |
|---|---|
| Airport | Djerba Zarzis International Airport (DTTJ) |
| Time | Latitude | Longitude | Altitude | Speed | Heading |
|---|---|---|---|---|---|
| 2026-05-07 03:34 | 52.15830 | 20.98066 | 338 ft | 0 kts | 114° |
| 2026-05-07 04:10 | 52.15825 | 20.98083 | 338 ft | 4 kts | 114° |
| 2026-05-07 04:10 | 52.15813 | 20.98123 | 338 ft | 3 kts | 114° |
| 2026-05-07 04:10 | 52.15815 | 20.98152 | 338 ft | 3 kts | 68° |
| 2026-05-07 04:11 | 52.15831 | 20.98175 | 335 ft | 4 kts | 26° |
| 2026-05-07 04:11 | 52.15869 | 20.98203 | 333 ft | 9 kts | 25° |
| 2026-05-07 04:11 | 52.15934 | 20.98252 | 335 ft | 10 kts | 25° |
| 2026-05-07 04:11 | 52.15999 | 20.98300 | 334 ft | 10 kts | 25° |
| 2026-05-07 04:12 | 52.16062 | 20.98347 | 334 ft | 10 kts | 24° |
| 2026-05-07 04:12 | 52.16104 | 20.98368 | 337 ft | 4 kts | 346° |
| 2026-05-07 04:12 | 52.16119 | 20.98336 | 336 ft | 4 kts | 295° |
| 2026-05-07 04:12 | 52.16119 | 20.98335 | 336 ft | 0 kts | 295° |
| 2026-05-07 04:13 | 52.16120 | 20.98332 | 336 ft | 2 kts | 294° |
| 2026-05-07 04:13 | 52.16214 | 20.97999 | 335 ft | 68 kts | 295° |
| 2026-05-07 04:13 | 52.16505 | 20.96969 | 332 ft | 131 kts | 294° |
| 2026-05-07 04:13 | 52.16955 | 20.95367 | 449 ft | 170 kts | 294° |
| 2026-05-07 04:14 | 52.17417 | 20.93669 | 1280 ft | 165 kts | 294° |
| 2026-05-07 04:14 | 52.17918 | 20.91859 | 1726 ft | 188 kts | 294° |
| 2026-05-07 04:14 | 52.18349 | 20.89738 | 2064 ft | 211 kts | 274° |
| 2026-05-07 04:14 | 52.17968 | 20.87318 | 2318 ft | 232 kts | 237° |
| 2026-05-07 04:15 | 52.16744 | 20.85588 | 2888 ft | 243 kts | 210° |
| 2026-05-07 04:15 | 52.15161 | 20.84412 | 3475 ft | 254 kts | 202° |
| 2026-05-07 04:15 | 52.13511 | 20.83375 | 4340 ft | 254 kts | 201° |
| 2026-05-07 04:15 | 52.11855 | 20.82359 | 5283 ft | 254 kts | 201° |
| 2026-05-07 04:16 | 52.10202 | 20.81342 | 6163 ft | 254 kts | 202° |
| 2026-05-07 04:16 | 52.08565 | 20.80325 | 6992 ft | 256 kts | 202° |
| 2026-05-07 04:16 | 52.06897 | 20.79278 | 7801 ft | 258 kts | 202° |
| 2026-05-07 04:16 | 52.05195 | 20.78201 | 8597 ft | 261 kts | 202° |
| 2026-05-07 04:17 | 52.03513 | 20.77131 | 9333 ft | 264 kts | 202° |
| 2026-05-07 04:17 | 52.01797 | 20.76035 | 10076 ft | 268 kts | 203° |
| 2026-05-07 04:17 | 51.99997 | 20.74883 | 10351 ft | 289 kts | 202° |
| 2026-05-07 04:17 | 51.98057 | 20.73637 | 10538 ft | 311 kts | 203° |
| 2026-05-07 04:18 | 51.95977 | 20.72300 | 10751 ft | 330 kts | 203° |
| 2026-05-07 04:18 | 51.93805 | 20.70908 | 11279 ft | 339 kts | 203° |
| 2026-05-07 04:18 | 51.91599 | 20.69493 | 11977 ft | 341 kts | 203° |
| 2026-05-07 04:18 | 51.90137 | 20.68555 | 12491 ft | 341 kts | 203° |
| 2026-05-07 04:19 | 51.87926 | 20.67139 | 12966 ft | 346 kts | 203° |
| 2026-05-07 04:19 | 51.85670 | 20.65693 | 13559 ft | 350 kts | 203° |
| 2026-05-07 04:19 | 51.83399 | 20.64237 | 14270 ft | 352 kts | 203° |
| 2026-05-07 04:19 | 51.81114 | 20.62779 | 14914 ft | 355 kts | 203° |
| 2026-05-07 04:20 | 51.78807 | 20.61307 | 15512 ft | 359 kts | 203° |
| 2026-05-07 04:20 | 51.76474 | 20.59820 | 16082 ft | 362 kts | 203° |
| 2026-05-07 04:20 | 51.74118 | 20.58319 | 16650 ft | 366 kts | 203° |
| 2026-05-07 04:21 | 51.69352 | 20.55287 | 17798 ft | 371 kts | 203° |
| 2026-05-07 04:21 | 51.66938 | 20.53754 | 18319 ft | 374 kts | 203° |
| 2026-05-07 04:21 | 51.64501 | 20.52209 | 18835 ft | 378 kts | 203° |
| 2026-05-07 04:21 | 51.62051 | 20.50656 | 19369 ft | 380 kts | 203° |
| 2026-05-07 04:22 | 51.59586 | 20.49097 | 19884 ft | 382 kts | 203° |
| 2026-05-07 04:22 | 51.57099 | 20.47525 | 20358 ft | 385 kts | 203° |
| 2026-05-07 04:22 | 51.54596 | 20.45945 | 20852 ft | 387 kts | 203° |
| 2026-05-07 04:22 | 51.52082 | 20.44360 | 21310 ft | 390 kts | 203° |
| 2026-05-07 04:23 | 51.49551 | 20.42766 | 21775 ft | 392 kts | 203° |
| 2026-05-07 04:23 | 51.47012 | 20.41132 | 22191 ft | 394 kts | 206° |
| 2026-05-07 04:23 | 51.44662 | 20.38972 | 22577 ft | 396 kts | 216° |
| 2026-05-07 04:23 | 51.42528 | 20.36183 | 22985 ft | 398 kts | 224° |
| 2026-05-07 04:24 | 51.40561 | 20.33039 | 23398 ft | 400 kts | 225° |
| 2026-05-07 04:24 | 51.38596 | 20.29874 | 23801 ft | 402 kts | 225° |
| 2026-05-07 04:24 | 51.36620 | 20.26700 | 24179 ft | 404 kts | 225° |
| 2026-05-07 04:24 | 51.34620 | 20.23503 | 24536 ft | 407 kts | 225° |
| 2026-05-07 04:25 | 51.32614 | 20.20309 | 24883 ft | 409 kts | 224° |
| 2026-05-07 04:25 | 51.30587 | 20.17095 | 25255 ft | 410 kts | 224° |
| 2026-05-07 04:25 | 51.28555 | 20.13883 | 25606 ft | 412 kts | 224° |
| 2026-05-07 04:25 | 51.26511 | 20.10659 | 25920 ft | 414 kts | 224° |
| 2026-05-07 04:26 | 51.24454 | 20.07422 | 26245 ft | 416 kts | 224° |
| 2026-05-07 04:26 | 51.22387 | 20.04173 | 26578 ft | 417 kts | 224° |
| 2026-05-07 04:26 | 51.20316 | 20.00921 | 26876 ft | 419 kts | 224° |
| 2026-05-07 04:26 | 51.18232 | 19.97654 | 27152 ft | 421 kts | 224° |
| 2026-05-07 04:27 | 51.16143 | 19.94383 | 27479 ft | 422 kts | 224° |
| 2026-05-07 04:27 | 51.14048 | 19.91110 | 27779 ft | 423 kts | 224° |
| 2026-05-07 04:27 | 51.11941 | 19.87820 | 28044 ft | 425 kts | 224° |
| 2026-05-07 04:27 | 51.09826 | 19.84523 | 28335 ft | 426 kts | 224° |
| 2026-05-07 04:28 | 51.07709 | 19.81227 | 28717 ft | 425 kts | 224° |
| 2026-05-07 04:28 | 51.05606 | 19.77956 | 29179 ft | 421 kts | 224° |
| 2026-05-07 04:28 | 51.03517 | 19.74712 | 29541 ft | 420 kts | 224° |
| 2026-05-07 04:28 | 51.01427 | 19.71469 | 29838 ft | 420 kts | 224° |
| 2026-05-07 04:29 | 50.99338 | 19.68234 | 30163 ft | 419 kts | 224° |
| 2026-05-07 04:29 | 50.97250 | 19.65005 | 30510 ft | 418 kts | 224° |
| 2026-05-07 04:29 | 50.95170 | 19.61792 | 30858 ft | 416 kts | 224° |
| 2026-05-07 04:29 | 50.93099 | 19.58596 | 31212 ft | 415 kts | 224° |
| 2026-05-07 04:30 | 50.91030 | 19.55408 | 31531 ft | 414 kts | 224° |
| 2026-05-07 04:30 | 50.88969 | 19.52237 | 31858 ft | 412 kts | 224° |
| 2026-05-07 04:30 | 50.86915 | 19.49081 | 32131 ft | 412 kts | 224° |
| 2026-05-07 04:30 | 50.84859 | 19.45927 | 32430 ft | 410 kts | 224° |
| 2026-05-07 04:31 | 50.83486 | 19.43823 | 32645 ft | 409 kts | 224° |
| 2026-05-07 04:31 | 50.81443 | 19.40695 | 32899 ft | 409 kts | 224° |
| 2026-05-07 04:31 | 50.79400 | 19.37569 | 33114 ft | 409 kts | 224° |
| 2026-05-07 04:32 | 50.77386 | 19.34492 | 33403 ft | 407 kts | 224° |
| 2026-05-07 04:32 | 50.75354 | 19.31393 | 33692 ft | 406 kts | 224° |
| 2026-05-07 04:32 | 50.73325 | 19.28301 | 33930 ft | 405 kts | 224° |
| 2026-05-07 04:32 | 50.71300 | 19.25220 | 34197 ft | 403 kts | 224° |
| 2026-05-07 04:33 | 50.69281 | 19.22152 | 34411 ft | 403 kts | 224° |
| 2026-05-07 04:33 | 50.67258 | 19.19082 | 34569 ft | 405 kts | 224° |
| 2026-05-07 04:33 | 50.65224 | 19.15996 | 34715 ft | 406 kts | 224° |
| 2026-05-07 04:33 | 50.63194 | 19.12920 | 34924 ft | 405 kts | 224° |
| 2026-05-07 04:34 | 50.61164 | 19.09850 | 35161 ft | 404 kts | 224° |
| 2026-05-07 04:34 | 50.59139 | 19.06794 | 35393 ft | 403 kts | 224° |
| 2026-05-07 04:34 | 50.57113 | 19.03739 | 35571 ft | 403 kts | 224° |
| 2026-05-07 04:34 | 50.55082 | 19.00680 | 35701 ft | 405 kts | 224° |
| 2026-05-07 04:35 | 50.53053 | 18.97629 | 35802 ft | 403 kts | 224° |
| 2026-05-07 04:35 | 50.51026 | 18.94583 | 35822 ft | 402 kts | 224° |
| 2026-05-07 04:35 | 50.46995 | 18.88537 | 35827 ft | 398 kts | 224° |
| 2026-05-07 04:36 | 50.42987 | 18.82539 | 35827 ft | 398 kts | 224° |
| 2026-05-07 04:36 | 50.38986 | 18.76569 | 35836 ft | 396 kts | 224° |
| 2026-05-07 04:37 | 50.35000 | 18.70633 | 35832 ft | 395 kts | 224° |
| 2026-05-07 04:37 | 50.31015 | 18.64717 | 35844 ft | 396 kts | 224° |
| 2026-05-07 04:38 | 50.26982 | 18.58740 | 35846 ft | 403 kts | 224° |
| 2026-05-07 04:38 | 50.22896 | 18.52698 | 35843 ft | 406 kts | 224° |
| 2026-05-07 04:39 | 50.18779 | 18.46628 | 35850 ft | 408 kts | 224° |
| 2026-05-07 04:39 | 50.14648 | 18.40552 | 35836 ft | 405 kts | 224° |
| 2026-05-07 04:40 | 50.10590 | 18.34600 | 35849 ft | 398 kts | 224° |
| 2026-05-07 04:40 | 50.06562 | 18.28703 | 35850 ft | 396 kts | 224° |
| 2026-05-07 04:41 | 50.02574 | 18.22877 | 35849 ft | 396 kts | 223° |
| 2026-05-07 04:41 | 49.98530 | 18.17067 | 35857 ft | 396 kts | 222° |
| 2026-05-07 04:42 | 49.94348 | 18.11500 | 35869 ft | 397 kts | 221° |
| 2026-05-07 04:42 | 49.90128 | 18.05963 | 35850 ft | 398 kts | 221° |
| 2026-05-07 04:43 | 49.85910 | 18.00402 | 35855 ft | 398 kts | 221° |
| 2026-05-07 04:43 | 49.81683 | 17.94816 | 35869 ft | 400 kts | 221° |
| 2026-05-07 04:44 | 49.77445 | 17.89217 | 35855 ft | 401 kts | 221° |
| 2026-05-07 04:44 | 49.73191 | 17.83608 | 35872 ft | 402 kts | 221° |
| 2026-05-07 04:45 | 49.68924 | 17.77996 | 35866 ft | 403 kts | 221° |
| 2026-05-07 04:45 | 49.64655 | 17.72396 | 35857 ft | 403 kts | 221° |
| 2026-05-07 04:46 | 49.60378 | 17.66799 | 35860 ft | 402 kts | 221° |
| 2026-05-07 04:46 | 49.56114 | 17.61234 | 35865 ft | 402 kts | 221° |
| 2026-05-07 04:47 | 49.51849 | 17.55679 | 35868 ft | 401 kts | 220° |
| 2026-05-07 04:47 | 49.47587 | 17.50141 | 35877 ft | 401 kts | 220° |
| 2026-05-07 04:48 | 49.43330 | 17.44621 | 35870 ft | 401 kts | 220° |
| 2026-05-07 04:48 | 49.39068 | 17.39108 | 35880 ft | 400 kts | 220° |
| 2026-05-07 04:49 | 49.34839 | 17.33655 | 35860 ft | 400 kts | 220° |
| 2026-05-07 04:49 | 49.30580 | 17.28170 | 35868 ft | 400 kts | 220° |
| 2026-05-07 04:50 | 49.26324 | 17.22705 | 35884 ft | 400 kts | 220° |
| 2026-05-07 04:50 | 49.22055 | 17.17234 | 35882 ft | 400 kts | 220° |
| 2026-05-07 04:51 | 49.17781 | 17.11769 | 35879 ft | 401 kts | 220° |
| 2026-05-07 04:51 | 49.13497 | 17.06306 | 35892 ft | 401 kts | 220° |
| 2026-05-07 04:52 | 49.09203 | 17.00841 | 35891 ft | 402 kts | 220° |
| 2026-05-07 04:52 | 49.04904 | 16.95384 | 35890 ft | 402 kts | 220° |
| 2026-05-07 04:53 | 49.00595 | 16.89926 | 35891 ft | 403 kts | 220° |
| 2026-05-07 04:53 | 48.96287 | 16.84482 | 35890 ft | 402 kts | 220° |
| 2026-05-07 04:54 | 48.91974 | 16.79045 | 35889 ft | 402 kts | 220° |
| 2026-05-07 04:54 | 48.87664 | 16.73622 | 35884 ft | 402 kts | 220° |
| 2026-05-07 04:55 | 48.83358 | 16.68217 | 35889 ft | 402 kts | 219° |
| 2026-05-07 04:55 | 48.78790 | 16.63378 | 35897 ft | 402 kts | 208° |
| 2026-05-07 04:56 | 48.73546 | 16.60444 | 35886 ft | 405 kts | 195° |
| 2026-05-07 04:56 | 48.68069 | 16.58733 | 35901 ft | 404 kts | 194° |
| 2026-05-07 04:57 | 48.62556 | 16.57058 | 35894 ft | 404 kts | 194° |
| 2026-05-07 04:57 | 48.57043 | 16.55355 | 35897 ft | 404 kts | 194° |
| 2026-05-07 04:58 | 48.51544 | 16.53640 | 35913 ft | 404 kts | 194° |
| 2026-05-07 04:58 | 48.46038 | 16.51922 | 35918 ft | 404 kts | 194° |
| 2026-05-07 04:59 | 48.40536 | 16.50205 | 35930 ft | 404 kts | 194° |
| 2026-05-07 04:59 | 48.35026 | 16.48488 | 35925 ft | 405 kts | 194° |
| 2026-05-07 05:00 | 48.29505 | 16.46776 | 35936 ft | 405 kts | 194° |
| 2026-05-07 05:00 | 48.23992 | 16.45070 | 35937 ft | 405 kts | 194° |
| 2026-05-07 05:01 | 48.18461 | 16.43365 | 35932 ft | 406 kts | 194° |
| 2026-05-07 05:01 | 48.12929 | 16.41654 | 35936 ft | 405 kts | 194° |
| 2026-05-07 05:02 | 48.07406 | 16.39954 | 35934 ft | 405 kts | 194° |
| 2026-05-07 05:02 | 48.01884 | 16.38259 | 35935 ft | 405 kts | 194° |
| 2026-05-07 05:03 | 47.96364 | 16.36568 | 35936 ft | 404 kts | 194° |
| 2026-05-07 05:03 | 47.90854 | 16.34885 | 35934 ft | 404 kts | 194° |
| 2026-05-07 05:04 | 47.85375 | 16.33210 | 35937 ft | 402 kts | 194° |
| 2026-05-07 05:04 | 47.79895 | 16.31509 | 35938 ft | 402 kts | 194° |
| 2026-05-07 05:05 | 47.74409 | 16.29855 | 35935 ft | 402 kts | 194° |
| 2026-05-07 05:05 | 47.68947 | 16.28216 | 35944 ft | 403 kts | 194° |
| 2026-05-07 05:06 | 47.63444 | 16.26558 | 35939 ft | 404 kts | 194° |
| 2026-05-07 05:06 | 47.57934 | 16.24897 | 35936 ft | 405 kts | 194° |
| 2026-05-07 05:07 | 47.52404 | 16.23232 | 35929 ft | 406 kts | 194° |
| 2026-05-07 05:07 | 47.46875 | 16.21571 | 35927 ft | 405 kts | 194° |
| 2026-05-07 05:08 | 47.41345 | 16.19913 | 35931 ft | 405 kts | 194° |
| 2026-05-07 05:08 | 47.35816 | 16.18258 | 35937 ft | 406 kts | 194° |
| 2026-05-07 05:09 | 47.31211 | 16.16882 | 35932 ft | 406 kts | 194° |
| 2026-05-07 05:09 | 47.25674 | 16.15233 | 35939 ft | 406 kts | 194° |
| 2026-05-07 05:10 | 47.20139 | 16.13588 | 35933 ft | 405 kts | 194° |
| 2026-05-07 05:10 | 47.14608 | 16.11945 | 35944 ft | 406 kts | 194° |
| 2026-05-07 05:11 | 47.09073 | 16.10305 | 35942 ft | 406 kts | 194° |
| 2026-05-07 05:11 | 47.03544 | 16.08671 | 35945 ft | 406 kts | 194° |
| 2026-05-07 05:12 | 46.97953 | 16.07417 | 35949 ft | 407 kts | 189° |
| 2026-05-07 05:12 | 46.92344 | 16.06622 | 35940 ft | 408 kts | 189° |
| 2026-05-07 05:13 | 46.86691 | 16.05835 | 35936 ft | 408 kts | 189° |
| 2026-05-07 05:13 | 46.81037 | 16.05013 | 35936 ft | 408 kts | 189° |
| 2026-05-07 05:14 | 46.75383 | 16.04173 | 35942 ft | 408 kts | 189° |
| 2026-05-07 05:14 | 46.69733 | 16.03334 | 35942 ft | 408 kts | 190° |
| 2026-05-07 05:15 | 46.64097 | 16.02496 | 35944 ft | 407 kts | 190° |
| 2026-05-07 05:15 | 46.58466 | 16.01662 | 35945 ft | 407 kts | 190° |
| 2026-05-07 05:16 | 46.52839 | 16.00832 | 35945 ft | 406 kts | 189° |
| 2026-05-07 05:16 | 46.47223 | 16.00005 | 35945 ft | 405 kts | 190° |
| 2026-05-07 05:17 | 46.41612 | 15.99179 | 35946 ft | 405 kts | 190° |
| 2026-05-07 05:17 | 46.36012 | 15.98357 | 35944 ft | 404 kts | 190° |
| 2026-05-07 05:18 | 46.30446 | 15.97391 | 35936 ft | 401 kts | 196° |
| 2026-05-07 05:18 | 46.25119 | 15.95142 | 35942 ft | 398 kts | 200° |
| 2026-05-07 05:19 | 46.19856 | 15.92809 | 35950 ft | 398 kts | 200° |
| 2026-05-07 05:19 | 46.14552 | 15.90480 | 35963 ft | 400 kts | 200° |
| 2026-05-07 05:20 | 46.09190 | 15.88144 | 36222 ft | 403 kts | 200° |
| 2026-05-07 05:20 | 46.06514 | 15.86984 | 36459 ft | 401 kts | 200° |
| 2026-05-07 05:20 | 46.03844 | 15.85830 | 36629 ft | 402 kts | 200° |
| 2026-05-07 05:21 | 46.01165 | 15.84673 | 36829 ft | 400 kts | 200° |
| 2026-05-07 05:21 | 45.95845 | 15.82379 | 36970 ft | 398 kts | 200° |
| 2026-05-07 05:22 | 45.90559 | 15.80103 | 36961 ft | 393 kts | 200° |
| 2026-05-07 05:22 | 45.85340 | 15.77860 | 36962 ft | 390 kts | 200° |
| 2026-05-07 05:23 | 45.80150 | 15.75633 | 36962 ft | 389 kts | 200° |
| 2026-05-07 05:23 | 45.74978 | 15.73418 | 36971 ft | 388 kts | 200° |
| 2026-05-07 05:24 | 45.69783 | 15.71197 | 36968 ft | 389 kts | 200° |
| 2026-05-07 05:24 | 45.64583 | 15.68978 | 36972 ft | 391 kts | 200° |
| 2026-05-07 05:25 | 45.59365 | 15.66756 | 36977 ft | 392 kts | 200° |
| 2026-05-07 05:25 | 45.54154 | 15.64545 | 36969 ft | 394 kts | 200° |
| 2026-05-07 05:26 | 45.48888 | 15.62311 | 36976 ft | 395 kts | 200° |
| 2026-05-07 05:26 | 45.43611 | 15.60078 | 36976 ft | 397 kts | 200° |
| 2026-05-07 05:27 | 45.38307 | 15.57839 | 36977 ft | 398 kts | 200° |
| 2026-05-07 05:27 | 45.32995 | 15.55596 | 36970 ft | 398 kts | 200° |
| 2026-05-07 05:28 | 45.27717 | 15.53375 | 36972 ft | 398 kts | 200° |
| 2026-05-07 05:28 | 45.22399 | 15.51141 | 36979 ft | 398 kts | 199° |
| 2026-05-07 05:29 | 45.17092 | 15.48919 | 36984 ft | 397 kts | 199° |
| 2026-05-07 05:29 | 45.11801 | 15.46706 | 36987 ft | 396 kts | 199° |
| 2026-05-07 05:30 | 45.06521 | 15.44502 | 36995 ft | 395 kts | 199° |
| 2026-05-07 05:30 | 45.01247 | 15.42303 | 36992 ft | 395 kts | 199° |
| 2026-05-07 05:31 | 44.95980 | 15.40113 | 36998 ft | 394 kts | 199° |
| 2026-05-07 05:31 | 44.90716 | 15.37927 | 36999 ft | 394 kts | 199° |
| 2026-05-07 05:32 | 44.85447 | 15.35744 | 37002 ft | 395 kts | 199° |
| 2026-05-07 05:32 | 44.80164 | 15.33559 | 37002 ft | 396 kts | 199° |
| 2026-05-07 05:33 | 44.74908 | 15.31390 | 37007 ft | 396 kts | 199° |
| 2026-05-07 05:33 | 44.69616 | 15.29211 | 37005 ft | 397 kts | 199° |
| 2026-05-07 05:34 | 44.64304 | 15.27026 | 37008 ft | 397 kts | 199° |
| 2026-05-07 05:34 | 44.58987 | 15.24844 | 37006 ft | 398 kts | 199° |
| 2026-05-07 05:35 | 44.53674 | 15.22667 | 37018 ft | 397 kts | 199° |
| 2026-05-07 05:35 | 44.48367 | 15.20498 | 37006 ft | 398 kts | 199° |
| 2026-05-07 05:36 | 44.43047 | 15.18327 | 37010 ft | 399 kts | 199° |
| 2026-05-07 05:36 | 44.37724 | 15.16158 | 37019 ft | 399 kts | 199° |
| 2026-05-07 05:37 | 44.32395 | 15.13992 | 37017 ft | 399 kts | 199° |
| 2026-05-07 05:37 | 44.27063 | 15.11829 | 37019 ft | 399 kts | 199° |
| 2026-05-07 05:38 | 44.21766 | 15.09684 | 37018 ft | 399 kts | 199° |
| 2026-05-07 05:38 | 44.16440 | 15.07530 | 37019 ft | 398 kts | 199° |
| 2026-05-07 05:39 | 44.11122 | 15.05386 | 37016 ft | 398 kts | 199° |
| 2026-05-07 05:39 | 44.05804 | 15.03245 | 37019 ft | 398 kts | 199° |
| 2026-05-07 05:40 | 44.00491 | 15.01109 | 37020 ft | 398 kts | 199° |
| 2026-05-07 05:40 | 43.95169 | 14.98973 | 37017 ft | 398 kts | 199° |
| 2026-05-07 05:41 | 43.89842 | 14.96840 | 37018 ft | 398 kts | 199° |
| 2026-05-07 05:41 | 43.84522 | 14.94713 | 37020 ft | 398 kts | 199° |
| 2026-05-07 05:42 | 43.79196 | 14.92590 | 37019 ft | 398 kts | 199° |
| 2026-05-07 05:42 | 43.73866 | 14.90468 | 37016 ft | 399 kts | 199° |
| 2026-05-07 05:43 | 43.68527 | 14.88345 | 37020 ft | 399 kts | 199° |
| 2026-05-07 05:43 | 43.63185 | 14.86225 | 37012 ft | 400 kts | 199° |
| 2026-05-07 05:44 | 43.57832 | 14.84106 | 37008 ft | 400 kts | 199° |
| 2026-05-07 05:44 | 43.52470 | 14.81987 | 37009 ft | 401 kts | 199° |
| 2026-05-07 05:45 | 43.47146 | 14.79886 | 37010 ft | 401 kts | 199° |
| 2026-05-07 05:45 | 43.41775 | 14.77770 | 37009 ft | 401 kts | 199° |
| 2026-05-07 05:46 | 43.36410 | 14.75660 | 37006 ft | 401 kts | 199° |
| 2026-05-07 05:46 | 43.31036 | 14.73551 | 37011 ft | 401 kts | 199° |
| 2026-05-07 05:47 | 43.25664 | 14.71447 | 36998 ft | 402 kts | 199° |
| 2026-05-07 05:47 | 43.20287 | 14.69346 | 37001 ft | 401 kts | 199° |
| 2026-05-07 05:48 | 43.14947 | 14.67263 | 37000 ft | 401 kts | 199° |
| 2026-05-07 05:48 | 43.09583 | 14.65174 | 36999 ft | 401 kts | 199° |
| 2026-05-07 05:49 | 43.04216 | 14.63088 | 36997 ft | 401 kts | 199° |
| 2026-05-07 05:49 | 42.98845 | 14.61003 | 37001 ft | 401 kts | 199° |
| 2026-05-07 05:50 | 42.93487 | 14.58927 | 36999 ft | 401 kts | 199° |
| 2026-05-07 05:50 | 42.88109 | 14.56848 | 37000 ft | 401 kts | 199° |
| 2026-05-07 05:51 | 42.82740 | 14.54775 | 37002 ft | 401 kts | 199° |
| 2026-05-07 05:51 | 42.77364 | 14.52704 | 37002 ft | 401 kts | 199° |
| 2026-05-07 05:52 | 42.71984 | 14.50635 | 36999 ft | 402 kts | 199° |
| 2026-05-07 05:52 | 42.66599 | 14.48567 | 37000 ft | 402 kts | 198° |
| 2026-05-07 05:53 | 42.61238 | 14.46512 | 36995 ft | 403 kts | 199° |
| 2026-05-07 05:53 | 42.55794 | 14.44428 | 36992 ft | 404 kts | 198° |
| 2026-05-07 05:54 | 42.50415 | 14.42375 | 36990 ft | 405 kts | 198° |
| 2026-05-07 05:54 | 42.44992 | 14.40308 | 36991 ft | 405 kts | 198° |
| 2026-05-07 05:55 | 42.39555 | 14.38240 | 36991 ft | 406 kts | 198° |
| 2026-05-07 05:55 | 42.34123 | 14.36177 | 36994 ft | 406 kts | 198° |
| 2026-05-07 05:56 | 42.28678 | 14.34113 | 36988 ft | 406 kts | 198° |
| 2026-05-07 05:56 | 42.23239 | 14.32055 | 36993 ft | 406 kts | 198° |
| 2026-05-07 05:57 | 42.18709 | 14.30344 | 36992 ft | 407 kts | 198° |
| 2026-05-07 05:57 | 42.13246 | 14.28284 | 36999 ft | 407 kts | 198° |
| 2026-05-07 05:58 | 42.07783 | 14.26229 | 37005 ft | 407 kts | 198° |
| 2026-05-07 05:58 | 42.02323 | 14.24177 | 37016 ft | 407 kts | 198° |
| 2026-05-07 05:59 | 41.96869 | 14.22130 | 37020 ft | 407 kts | 198° |
| 2026-05-07 05:59 | 41.91426 | 14.20091 | 37023 ft | 406 kts | 198° |
| 2026-05-07 06:00 | 41.86012 | 14.18068 | 37019 ft | 406 kts | 198° |
| 2026-05-07 06:00 | 41.80576 | 14.16038 | 37016 ft | 405 kts | 198° |
| 2026-05-07 06:01 | 41.75132 | 14.14010 | 37020 ft | 406 kts | 198° |
| 2026-05-07 06:01 | 41.69696 | 14.11989 | 37009 ft | 406 kts | 198° |
| 2026-05-07 06:02 | 41.64247 | 14.09968 | 37010 ft | 406 kts | 198° |
| 2026-05-07 06:02 | 41.58798 | 14.07949 | 37009 ft | 406 kts | 198° |
| 2026-05-07 06:03 | 41.53338 | 14.05929 | 37013 ft | 406 kts | 198° |
| 2026-05-07 06:03 | 41.47895 | 14.03920 | 37003 ft | 406 kts | 198° |
| 2026-05-07 06:04 | 41.42448 | 14.01911 | 36998 ft | 406 kts | 198° |
| 2026-05-07 06:04 | 41.36998 | 13.99906 | 37000 ft | 407 kts | 198° |
| 2026-05-07 06:05 | 41.31584 | 13.97915 | 36996 ft | 407 kts | 198° |
| 2026-05-07 06:05 | 41.26120 | 13.95912 | 37007 ft | 407 kts | 199° |
| 2026-05-07 06:06 | 41.20650 | 13.93909 | 36995 ft | 408 kts | 199° |
| 2026-05-07 06:06 | 41.15166 | 13.91906 | 37003 ft | 408 kts | 199° |
| 2026-05-07 06:07 | 41.09681 | 13.89904 | 36996 ft | 409 kts | 199° |
| 2026-05-07 06:07 | 41.04190 | 13.87904 | 36990 ft | 409 kts | 199° |
| 2026-05-07 06:08 | 40.98693 | 13.85907 | 36994 ft | 410 kts | 199° |
| 2026-05-07 06:08 | 40.93222 | 13.83921 | 37003 ft | 410 kts | 199° |
| 2026-05-07 06:09 | 40.87710 | 13.81925 | 37000 ft | 411 kts | 199° |
| 2026-05-07 06:09 | 40.82179 | 13.79924 | 36993 ft | 412 kts | 199° |
| 2026-05-07 06:10 | 40.76654 | 13.77928 | 36988 ft | 412 kts | 199° |
| 2026-05-07 06:10 | 40.71127 | 13.75938 | 36991 ft | 412 kts | 199° |
| 2026-05-07 06:11 | 40.65591 | 13.73947 | 36992 ft | 412 kts | 199° |
| 2026-05-07 06:11 | 40.60049 | 13.71955 | 36992 ft | 413 kts | 199° |
| 2026-05-07 06:12 | 40.54537 | 13.69979 | 37000 ft | 413 kts | 199° |
| 2026-05-07 06:12 | 40.48989 | 13.67993 | 37001 ft | 413 kts | 199° |
| 2026-05-07 06:13 | 40.43443 | 13.66011 | 37001 ft | 413 kts | 199° |
| 2026-05-07 06:13 | 40.37889 | 13.64030 | 37000 ft | 413 kts | 199° |
| 2026-05-07 06:14 | 40.32343 | 13.62057 | 37010 ft | 413 kts | 201° |
| 2026-05-07 06:14 | 40.26777 | 13.60076 | 37032 ft | 415 kts | 201° |
| 2026-05-07 06:15 | 40.21177 | 13.58087 | 37033 ft | 418 kts | 201° |
| 2026-05-07 06:15 | 40.15543 | 13.56090 | 37024 ft | 421 kts | 201° |
| 2026-05-07 06:16 | 40.09873 | 13.54083 | 37012 ft | 423 kts | 201° |
| 2026-05-07 06:16 | 40.04204 | 13.52084 | 36999 ft | 425 kts | 201° |
| 2026-05-07 06:17 | 39.98487 | 13.50070 | 36991 ft | 426 kts | 201° |
| 2026-05-07 06:17 | 39.92760 | 13.48056 | 36988 ft | 426 kts | 201° |
| 2026-05-07 06:18 | 39.87049 | 13.46052 | 36977 ft | 424 kts | 201° |
| 2026-05-07 06:18 | 39.81358 | 13.44059 | 36978 ft | 422 kts | 202° |
| 2026-05-07 06:19 | 39.75696 | 13.42077 | 36974 ft | 420 kts | 202° |
| 2026-05-07 06:19 | 39.70064 | 13.40109 | 36966 ft | 418 kts | 202° |
| 2026-05-07 06:20 | 39.64462 | 13.38156 | 36966 ft | 416 kts | 202° |
| 2026-05-07 06:20 | 39.58875 | 13.36209 | 36962 ft | 415 kts | 202° |
| 2026-05-07 06:21 | 39.53305 | 13.34273 | 36951 ft | 414 kts | 202° |
| 2026-05-07 06:21 | 39.47736 | 13.32339 | 36957 ft | 414 kts | 203° |
| 2026-05-07 06:22 | 39.42195 | 13.30417 | 36949 ft | 415 kts | 203° |
| 2026-05-07 06:22 | 39.33803 | 13.27514 | 36946 ft | 417 kts | 203° |
| 2026-05-07 06:23 | 39.28183 | 13.25573 | 36940 ft | 418 kts | 204° |
| 2026-05-07 06:23 | 39.22554 | 13.23635 | 36929 ft | 419 kts | 204° |
| 2026-05-07 06:24 | 39.16925 | 13.21700 | 36930 ft | 418 kts | 204° |
| 2026-05-07 06:24 | 39.11294 | 13.19769 | 36912 ft | 418 kts | 204° |
| 2026-05-07 06:25 | 39.05679 | 13.17844 | 36913 ft | 417 kts | 204° |
| 2026-05-07 06:25 | 39.00076 | 13.15928 | 36906 ft | 416 kts | 204° |
| 2026-05-07 06:26 | 38.94483 | 13.14017 | 36900 ft | 415 kts | 205° |
| 2026-05-07 06:26 | 38.88908 | 13.12115 | 36893 ft | 414 kts | 205° |
| 2026-05-07 06:27 | 38.83352 | 13.10222 | 36888 ft | 412 kts | 205° |
| 2026-05-07 06:27 | 38.77859 | 13.08353 | 36885 ft | 411 kts | 205° |
| 2026-05-07 06:28 | 38.72335 | 13.06478 | 36891 ft | 410 kts | 205° |
| 2026-05-07 06:28 | 38.66819 | 13.04610 | 36890 ft | 409 kts | 206° |
| 2026-05-07 06:29 | 38.61312 | 13.02746 | 36891 ft | 410 kts | 206° |
| 2026-05-07 06:29 | 38.55803 | 13.00882 | 36892 ft | 409 kts | 206° |
| 2026-05-07 06:30 | 38.50289 | 12.99023 | 36885 ft | 409 kts | 206° |
| 2026-05-07 06:30 | 38.44784 | 12.97168 | 36890 ft | 409 kts | 206° |
| 2026-05-07 06:31 | 38.39271 | 12.95314 | 36889 ft | 409 kts | 206° |
| 2026-05-07 06:31 | 38.33764 | 12.93465 | 36891 ft | 409 kts | 206° |
| 2026-05-07 06:32 | 38.28264 | 12.91624 | 36887 ft | 408 kts | 206° |
| 2026-05-07 06:32 | 38.22767 | 12.89783 | 36887 ft | 408 kts | 206° |
| 2026-05-07 06:33 | 38.17280 | 12.87949 | 36892 ft | 408 kts | 206° |
| 2026-05-07 06:33 | 38.11830 | 12.86129 | 36888 ft | 407 kts | 207° |
| 2026-05-07 06:34 | 38.06351 | 12.84305 | 36888 ft | 407 kts | 207° |
| 2026-05-07 06:34 | 38.00887 | 12.82488 | 36889 ft | 406 kts | 207° |
| 2026-05-07 06:35 | 37.95412 | 12.80670 | 36895 ft | 406 kts | 207° |
| 2026-05-07 06:35 | 37.89955 | 12.78861 | 36893 ft | 405 kts | 207° |
| 2026-05-07 06:36 | 37.84512 | 12.77059 | 36889 ft | 404 kts | 207° |
| 2026-05-07 06:36 | 37.79072 | 12.75261 | 36889 ft | 404 kts | 207° |
| 2026-05-07 06:37 | 37.73642 | 12.73469 | 36884 ft | 402 kts | 207° |
| 2026-05-07 06:37 | 37.68234 | 12.71686 | 36888 ft | 401 kts | 207° |
| 2026-05-07 06:38 | 37.62839 | 12.69910 | 36876 ft | 400 kts | 207° |
| 2026-05-07 06:38 | 37.57448 | 12.68141 | 36880 ft | 400 kts | 207° |
| 2026-05-07 06:39 | 37.52070 | 12.66376 | 36878 ft | 399 kts | 207° |
| 2026-05-07 06:39 | 37.46702 | 12.64615 | 36880 ft | 398 kts | 207° |
| 2026-05-07 06:40 | 37.41343 | 12.62862 | 36879 ft | 398 kts | 207° |
| 2026-05-07 06:40 | 37.35977 | 12.61108 | 36879 ft | 398 kts | 207° |
| 2026-05-07 06:41 | 37.30641 | 12.59366 | 36884 ft | 399 kts | 207° |
| 2026-05-07 06:41 | 37.25247 | 12.57609 | 36882 ft | 400 kts | 207° |
| 2026-05-07 06:42 | 37.19839 | 12.55849 | 36871 ft | 402 kts | 207° |
| 2026-05-07 06:42 | 37.14474 | 12.53954 | 36862 ft | 398 kts | 210° |
| 2026-05-07 06:43 | 37.09222 | 12.51793 | 36863 ft | 398 kts | 211° |
| 2026-05-07 06:43 | 37.03968 | 12.49603 | 36860 ft | 398 kts | 211° |
| 2026-05-07 06:44 | 36.98727 | 12.47439 | 36861 ft | 399 kts | 211° |
| 2026-05-07 06:44 | 36.93447 | 12.45276 | 36864 ft | 399 kts | 210° |
| 2026-05-07 06:45 | 36.88170 | 12.43123 | 36858 ft | 399 kts | 210° |
| 2026-05-07 06:45 | 36.82886 | 12.40974 | 36850 ft | 398 kts | 210° |
| 2026-05-07 06:46 | 36.78470 | 12.39180 | 36850 ft | 397 kts | 210° |
| 2026-05-07 06:46 | 36.73258 | 12.37064 | 36850 ft | 396 kts | 210° |
| 2026-05-07 06:47 | 36.68021 | 12.34940 | 36852 ft | 395 kts | 210° |
| 2026-05-07 06:47 | 36.62799 | 12.32825 | 36850 ft | 394 kts | 210° |
| 2026-05-07 06:48 | 36.57591 | 12.30720 | 36850 ft | 393 kts | 210° |
| 2026-05-07 06:48 | 36.52395 | 12.28621 | 36851 ft | 392 kts | 210° |
| 2026-05-07 06:49 | 36.47209 | 12.26529 | 36845 ft | 392 kts | 210° |
| 2026-05-07 06:49 | 36.42024 | 12.24441 | 36839 ft | 391 kts | 210° |
| 2026-05-07 06:50 | 36.36839 | 12.22356 | 36843 ft | 391 kts | 210° |
| 2026-05-07 06:50 | 36.31659 | 12.20275 | 36837 ft | 392 kts | 210° |
| 2026-05-07 06:51 | 36.26468 | 12.18192 | 36836 ft | 392 kts | 210° |
| 2026-05-07 06:51 | 36.21265 | 12.16109 | 36833 ft | 393 kts | 210° |
| 2026-05-07 06:52 | 36.16093 | 12.14040 | 36827 ft | 394 kts | 210° |
| 2026-05-07 06:52 | 36.10877 | 12.11957 | 36812 ft | 394 kts | 210° |
| 2026-05-07 06:53 | 36.05649 | 12.09872 | 36814 ft | 395 kts | 210° |
| 2026-05-07 06:53 | 36.00420 | 12.07791 | 36813 ft | 394 kts | 210° |
| 2026-05-07 06:54 | 35.95193 | 12.05714 | 36803 ft | 394 kts | 210° |
| 2026-05-07 06:54 | 35.89978 | 12.03644 | 36801 ft | 393 kts | 210° |
| 2026-05-07 06:55 | 35.84766 | 12.01578 | 36797 ft | 393 kts | 210° |
| 2026-05-07 06:55 | 35.79545 | 11.99506 | 36417 ft | 399 kts | 210° |
| 2026-05-07 06:56 | 35.76921 | 11.98468 | 36095 ft | 393 kts | 209° |
| 2026-05-07 06:56 | 35.74326 | 11.97448 | 35662 ft | 390 kts | 209° |
| 2026-05-07 06:56 | 35.71753 | 11.96436 | 35241 ft | 386 kts | 209° |
| 2026-05-07 06:56 | 35.69213 | 11.95438 | 34837 ft | 381 kts | 209° |
| 2026-05-07 06:57 | 35.66702 | 11.94451 | 34438 ft | 378 kts | 209° |
| 2026-05-07 06:57 | 35.64222 | 11.93470 | 34062 ft | 381 kts | 209° |
| 2026-05-07 06:57 | 35.61692 | 11.92466 | 33655 ft | 381 kts | 208° |
| 2026-05-07 06:57 | 35.59175 | 11.91474 | 33246 ft | 378 kts | 208° |
| 2026-05-07 06:58 | 35.56682 | 11.90495 | 32840 ft | 375 kts | 208° |
| 2026-05-07 06:58 | 35.54209 | 11.89525 | 32441 ft | 372 kts | 208° |
| 2026-05-07 06:58 | 35.51759 | 11.88564 | 32044 ft | 368 kts | 208° |
| 2026-05-07 06:58 | 35.49328 | 11.87611 | 31661 ft | 366 kts | 208° |
| 2026-05-07 06:59 | 35.46887 | 11.86647 | 31285 ft | 372 kts | 208° |
| 2026-05-07 06:59 | 35.44418 | 11.85672 | 30882 ft | 372 kts | 208° |
| 2026-05-07 06:59 | 35.41955 | 11.84706 | 30484 ft | 369 kts | 208° |
| 2026-05-07 06:59 | 35.39518 | 11.83755 | 30095 ft | 366 kts | 208° |
| 2026-05-07 07:00 | 35.37097 | 11.82810 | 29705 ft | 364 kts | 207° |
| 2026-05-07 07:00 | 35.34696 | 11.81873 | 29327 ft | 361 kts | 207° |
| 2026-05-07 07:00 | 35.32312 | 11.80940 | 28928 ft | 359 kts | 207° |
| 2026-05-07 07:00 | 35.29941 | 11.80012 | 28536 ft | 356 kts | 207° |
| 2026-05-07 07:01 | 35.27589 | 11.79094 | 28144 ft | 355 kts | 206° |
| 2026-05-07 07:01 | 35.25255 | 11.78182 | 27770 ft | 357 kts | 206° |
| 2026-05-07 07:01 | 35.22884 | 11.77254 | 27380 ft | 358 kts | 205° |
| 2026-05-07 07:01 | 35.20516 | 11.76330 | 26975 ft | 356 kts | 205° |
| 2026-05-07 07:02 | 35.18165 | 11.75415 | 26580 ft | 353 kts | 205° |
| 2026-05-07 07:02 | 35.15830 | 11.74507 | 26194 ft | 350 kts | 205° |
| 2026-05-07 07:02 | 35.13511 | 11.73606 | 25816 ft | 348 kts | 204° |
| 2026-05-07 07:02 | 35.11213 | 11.72713 | 25430 ft | 346 kts | 204° |
| 2026-05-07 07:03 | 35.08929 | 11.71826 | 25051 ft | 343 kts | 204° |
| 2026-05-07 07:03 | 35.06657 | 11.70943 | 24671 ft | 342 kts | 204° |
| 2026-05-07 07:03 | 35.04390 | 11.70062 | 24293 ft | 341 kts | 204° |
| 2026-05-07 07:03 | 35.02128 | 11.69184 | 23895 ft | 341 kts | 203° |
| 2026-05-07 07:04 | 34.99868 | 11.68307 | 23527 ft | 339 kts | 203° |
| 2026-05-07 07:04 | 34.97632 | 11.67441 | 23159 ft | 336 kts | 203° |
| 2026-05-07 07:04 | 34.95409 | 11.66581 | 22787 ft | 335 kts | 204° |
| 2026-05-07 07:04 | 34.93220 | 11.65735 | 22421 ft | 333 kts | 204° |
| 2026-05-07 07:05 | 34.91020 | 11.64885 | 22049 ft | 331 kts | 203° |
| 2026-05-07 07:05 | 34.88832 | 11.64039 | 21678 ft | 329 kts | 204° |
| 2026-05-07 07:05 | 34.86657 | 11.63198 | 21306 ft | 327 kts | 204° |
| 2026-05-07 07:05 | 34.84495 | 11.62363 | 20943 ft | 325 kts | 204° |
| 2026-05-07 07:06 | 34.82347 | 11.61534 | 20576 ft | 323 kts | 204° |
| 2026-05-07 07:06 | 34.80214 | 11.60710 | 20213 ft | 320 kts | 204° |
| 2026-05-07 07:06 | 34.78101 | 11.59895 | 19849 ft | 318 kts | 204° |
| 2026-05-07 07:06 | 34.75992 | 11.59081 | 19486 ft | 316 kts | 204° |
| 2026-05-07 07:07 | 34.73896 | 11.58274 | 19126 ft | 315 kts | 204° |
| 2026-05-07 07:07 | 34.71816 | 11.57474 | 18765 ft | 313 kts | 204° |
| 2026-05-07 07:07 | 34.69749 | 11.56679 | 18410 ft | 310 kts | 204° |
| 2026-05-07 07:07 | 34.67696 | 11.55889 | 18056 ft | 308 kts | 204° |
| 2026-05-07 07:08 | 34.65769 | 11.54863 | 17720 ft | 297 kts | 214° |
| 2026-05-07 07:08 | 34.64007 | 11.53610 | 17203 ft | 293 kts | 216° |
| 2026-05-07 07:08 | 34.62253 | 11.52339 | 16529 ft | 294 kts | 216° |
| 2026-05-07 07:08 | 34.60501 | 11.51066 | 15922 ft | 293 kts | 216° |
| 2026-05-07 07:09 | 34.58757 | 11.49803 | 15350 ft | 291 kts | 216° |
| 2026-05-07 07:09 | 34.57026 | 11.48555 | 14863 ft | 286 kts | 216° |
| 2026-05-07 07:09 | 34.55333 | 11.47339 | 14485 ft | 280 kts | 216° |
| 2026-05-07 07:09 | 34.53669 | 11.46144 | 14145 ft | 276 kts | 216° |
| 2026-05-07 07:10 | 34.52026 | 11.44967 | 13806 ft | 273 kts | 216° |
| 2026-05-07 07:10 | 34.50365 | 11.43775 | 13500 ft | 284 kts | 216° |
| 2026-05-07 07:10 | 34.48649 | 11.42545 | 13151 ft | 288 kts | 216° |
| 2026-05-07 07:10 | 34.46925 | 11.41313 | 12801 ft | 286 kts | 216° |
| 2026-05-07 07:11 | 34.45215 | 11.40093 | 12460 ft | 285 kts | 216° |
| 2026-05-07 07:11 | 34.43511 | 11.38878 | 12107 ft | 284 kts | 216° |
| 2026-05-07 07:11 | 34.41810 | 11.37665 | 11774 ft | 282 kts | 216° |
| 2026-05-07 07:11 | 34.40123 | 11.36464 | 11443 ft | 281 kts | 216° |
| 2026-05-07 07:12 | 34.38465 | 11.35284 | 11110 ft | 279 kts | 216° |
| 2026-05-07 07:12 | 34.36773 | 11.34079 | 10774 ft | 278 kts | 216° |
| 2026-05-07 07:12 | 34.35129 | 11.32909 | 10448 ft | 277 kts | 216° |
| 2026-05-07 07:12 | 34.33472 | 11.31729 | 10172 ft | 276 kts | 216° |
| 2026-05-07 07:13 | 34.31824 | 11.30557 | 10053 ft | 273 kts | 216° |
| 2026-05-07 07:13 | 34.30205 | 11.29407 | 9916 ft | 266 kts | 216° |
| 2026-05-07 07:13 | 34.28626 | 11.28286 | 9686 ft | 263 kts | 216° |
| 2026-05-07 07:13 | 34.27056 | 11.27171 | 9422 ft | 261 kts | 216° |
| 2026-05-07 07:14 | 34.25494 | 11.26064 | 9136 ft | 260 kts | 216° |
| 2026-05-07 07:14 | 34.23940 | 11.24966 | 8856 ft | 258 kts | 215° |
| 2026-05-07 07:14 | 34.22398 | 11.23873 | 8571 ft | 258 kts | 215° |
| 2026-05-07 07:14 | 34.20844 | 11.22771 | 8295 ft | 259 kts | 215° |
| 2026-05-07 07:15 | 34.19289 | 11.21668 | 8092 ft | 261 kts | 215° |
| 2026-05-07 07:15 | 34.17724 | 11.20559 | 7804 ft | 260 kts | 215° |
| 2026-05-07 07:15 | 34.16168 | 11.19459 | 7515 ft | 259 kts | 215° |
| 2026-05-07 07:15 | 34.14614 | 11.18359 | 7244 ft | 258 kts | 215° |
| 2026-05-07 07:16 | 34.13070 | 11.17266 | 6958 ft | 257 kts | 215° |
| 2026-05-07 07:16 | 34.11535 | 11.16180 | 6675 ft | 254 kts | 215° |
| 2026-05-07 07:16 | 34.10010 | 11.15102 | 6404 ft | 255 kts | 215° |
| 2026-05-07 07:16 | 34.08487 | 11.14025 | 6125 ft | 258 kts | 215° |
| 2026-05-07 07:17 | 34.06942 | 11.12934 | 5840 ft | 257 kts | 215° |
| 2026-05-07 07:17 | 34.05403 | 11.11848 | 5555 ft | 256 kts | 215° |
| 2026-05-07 07:17 | 34.03870 | 11.10767 | 5281 ft | 256 kts | 215° |
| 2026-05-07 07:17 | 34.02334 | 11.09688 | 4999 ft | 255 kts | 214° |
| 2026-05-07 07:18 | 34.00812 | 11.08614 | 4719 ft | 254 kts | 214° |
| 2026-05-07 07:18 | 33.99277 | 11.07531 | 4452 ft | 258 kts | 215° |
| 2026-05-07 07:18 | 33.97724 | 11.06435 | 4176 ft | 259 kts | 215° |
| 2026-05-07 07:18 | 33.96172 | 11.05342 | 3889 ft | 258 kts | 214° |
| 2026-05-07 07:19 | 33.94641 | 11.04267 | 3757 ft | 250 kts | 214° |
| 2026-05-07 07:19 | 33.93158 | 11.03226 | 3629 ft | 244 kts | 215° |
| 2026-05-07 07:19 | 33.91712 | 11.02210 | 3521 ft | 239 kts | 214° |
| 2026-05-07 07:19 | 33.90275 | 11.01200 | 3420 ft | 240 kts | 214° |
| 2026-05-07 07:20 | 33.88847 | 11.00146 | 3272 ft | 242 kts | 222° |
| 2026-05-07 07:20 | 33.87844 | 10.98583 | 3012 ft | 229 kts | 253° |
| 2026-05-07 07:20 | 33.87543 | 10.96789 | 2783 ft | 211 kts | 269° |
| 2026-05-07 07:20 | 33.87449 | 10.95080 | 2569 ft | 198 kts | 272° |
| 2026-05-07 07:21 | 33.87433 | 10.93503 | 2493 ft | 179 kts | 274° |
| 2026-05-07 07:21 | 33.87447 | 10.92052 | 2491 ft | 172 kts | 275° |
| 2026-05-07 07:21 | 33.87470 | 10.90625 | 2490 ft | 169 kts | 276° |
| 2026-05-07 07:21 | 33.87497 | 10.89235 | 2449 ft | 167 kts | 275° |
| 2026-05-07 07:22 | 33.87523 | 10.87826 | 2352 ft | 173 kts | 276° |
| 2026-05-07 07:22 | 33.87551 | 10.86358 | 2108 ft | 174 kts | 275° |
| 2026-05-07 07:22 | 33.87576 | 10.84938 | 1870 ft | 165 kts | 276° |
| 2026-05-07 07:22 | 33.87600 | 10.83601 | 1628 ft | 155 kts | 276° |
| 2026-05-07 07:23 | 33.87626 | 10.82346 | 1442 ft | 145 kts | 276° |
| 2026-05-07 07:23 | 33.87651 | 10.81107 | 1153 ft | 150 kts | 275° |
| 2026-05-07 07:23 | 33.87674 | 10.79847 | 763 ft | 153 kts | 276° |
| 2026-05-07 07:23 | 33.87678 | 10.78532 | 877 ft | 154 kts | 273° |
| 2026-05-07 07:24 | 33.87669 | 10.77264 | 1243 ft | 158 kts | 275° |
| 2026-05-07 07:24 | 33.87707 | 10.75866 | 1681 ft | 171 kts | 275° |
| 2026-05-07 07:24 | 33.87662 | 10.74467 | 2050 ft | 174 kts | 266° |
| 2026-05-07 07:24 | 33.87496 | 10.72991 | 2207 ft | 188 kts | 267° |
| 2026-05-07 07:25 | 33.87274 | 10.69738 | 2510 ft | 207 kts | 271° |
| 2026-05-07 07:25 | 33.87194 | 10.67983 | 2484 ft | 211 kts | 271° |
| 2026-05-07 07:25 | 33.86881 | 10.66249 | 2471 ft | 220 kts | 243° |
| 2026-05-07 07:26 | 33.85749 | 10.64971 | 2507 ft | 232 kts | 210° |
| 2026-05-07 07:26 | 33.84162 | 10.64495 | 2507 ft | 242 kts | 180° |
| 2026-05-07 07:26 | 33.82557 | 10.65028 | 2505 ft | 242 kts | 149° |
| 2026-05-07 07:26 | 33.81222 | 10.66241 | 2508 ft | 240 kts | 138° |
| 2026-05-07 07:27 | 33.79987 | 10.67587 | 2495 ft | 239 kts | 136° |
| 2026-05-07 07:27 | 33.78771 | 10.68940 | 2496 ft | 238 kts | 136° |
| 2026-05-07 07:27 | 33.77554 | 10.70281 | 2493 ft | 237 kts | 137° |
| 2026-05-07 07:27 | 33.76339 | 10.71615 | 2494 ft | 236 kts | 137° |
| 2026-05-07 07:28 | 33.75185 | 10.72995 | 2480 ft | 233 kts | 121° |
| 2026-05-07 07:28 | 33.74652 | 10.74772 | 2515 ft | 227 kts | 94° |
| 2026-05-07 07:28 | 33.74464 | 10.76691 | 2509 ft | 235 kts | 93° |
| 2026-05-07 07:28 | 33.74271 | 10.78683 | 2519 ft | 244 kts | 93° |
| 2026-05-07 07:29 | 33.74074 | 10.80726 | 2511 ft | 247 kts | 93° |
| 2026-05-07 07:29 | 33.73879 | 10.82772 | 2499 ft | 246 kts | 93° |
| 2026-05-07 07:29 | 33.73689 | 10.84813 | 2495 ft | 245 kts | 93° |
| 2026-05-07 07:29 | 33.73506 | 10.86823 | 2485 ft | 244 kts | 93° |
| 2026-05-07 07:30 | 33.73321 | 10.88841 | 2492 ft | 243 kts | 93° |
| 2026-05-07 07:30 | 33.73140 | 10.90860 | 2492 ft | 242 kts | 93° |
| 2026-05-07 07:30 | 33.73050 | 10.92869 | 2490 ft | 239 kts | 85° |
| 2026-05-07 07:30 | 33.73136 | 10.94852 | 2497 ft | 237 kts | 83° |
| 2026-05-07 07:31 | 33.73240 | 10.96823 | 2493 ft | 236 kts | 83° |
| 2026-05-07 07:31 | 33.73349 | 10.98791 | 2495 ft | 237 kts | 83° |
| 2026-05-07 07:31 | 33.73467 | 11.00774 | 2502 ft | 239 kts | 80° |
| 2026-05-07 07:31 | 33.74105 | 11.02556 | 2496 ft | 231 kts | 41° |
| 2026-05-07 07:32 | 33.75485 | 11.03389 | 2508 ft | 223 kts | 2° |
| 2026-05-07 07:32 | 33.76995 | 11.03278 | 2491 ft | 213 kts | 346° |
| 2026-05-07 07:32 | 33.78369 | 11.02792 | 2487 ft | 199 kts | 340° |
| 2026-05-07 07:32 | 33.79637 | 11.02264 | 2472 ft | 188 kts | 339° |
| 2026-05-07 07:33 | 33.80879 | 11.01755 | 2394 ft | 189 kts | 340° |
| 2026-05-07 07:33 | 33.82119 | 11.01256 | 2282 ft | 188 kts | 340° |
| 2026-05-07 07:33 | 33.83354 | 11.00762 | 2153 ft | 185 kts | 340° |
| 2026-05-07 07:33 | 33.84555 | 11.00288 | 2039 ft | 179 kts | 340° |
| 2026-05-07 07:34 | 33.85639 | 10.99620 | 1879 ft | 174 kts | 319° |
| 2026-05-07 07:34 | 33.86447 | 10.98602 | 1706 ft | 168 kts | 308° |
| 2026-05-07 07:34 | 33.87022 | 10.97383 | 1619 ft | 170 kts | 286° |
| 2026-05-07 07:34 | 33.87177 | 10.95982 | 1618 ft | 168 kts | 280° |
| 2026-05-07 07:35 | 33.87311 | 10.94590 | 1603 ft | 167 kts | 278° |
| 2026-05-07 07:35 | 33.87386 | 10.93195 | 1596 ft | 167 kts | 276° |
| 2026-05-07 07:35 | 33.87432 | 10.91787 | 1609 ft | 169 kts | 276° |
| 2026-05-07 07:35 | 33.87468 | 10.90391 | 1587 ft | 163 kts | 275° |
| 2026-05-07 07:36 | 33.87495 | 10.89072 | 1590 ft | 155 kts | 276° |
| 2026-05-07 07:36 | 33.87523 | 10.87743 | 1392 ft | 160 kts | 275° |
| 2026-05-07 07:36 | 33.87539 | 10.86884 | 1288 ft | 151 kts | 276° |
| 2026-05-07 07:36 | 33.87567 | 10.85635 | 1054 ft | 147 kts | 276° |
| 2026-05-07 07:37 | 33.87595 | 10.83983 | 740 ft | 150 kts | 275° |
| 2026-05-07 07:37 | 33.87621 | 10.82726 | 490 ft | 150 kts | 275° |
| 2026-05-07 07:37 | 33.87613 | 10.81873 | 362 ft | 147 kts | 274° |
| 2026-05-07 07:37 | 33.87667 | 10.80697 | 227 ft | 142 kts | 279° |
| 2026-05-07 07:38 | 33.87598 | 10.79468 | 70 ft | 144 kts | 267° |
| 2026-05-07 07:38 | 33.87562 | 10.78340 | 18 ft | 121 kts | 265° |
| 2026-05-07 07:38 | 33.87542 | 10.77515 | 21 ft | 77 kts | 268° |
| 2026-05-07 07:38 | 33.87529 | 10.77049 | 20 ft | 42 kts | 267° |
| 2026-05-07 07:39 | 33.87516 | 10.76781 | 19 ft | 16 kts | 247° |
| 2026-05-07 07:39 | 33.87428 | 10.76743 | 20 ft | 14 kts | 182° |
| 2026-05-07 07:39 | 33.87358 | 10.76791 | 22 ft | 12 kts | 104° |
| 2026-05-07 07:39 | 33.87357 | 10.76890 | 24 ft | 12 kts | 87° |
| 2026-05-07 07:40 | 33.87360 | 10.76986 | 26 ft | 12 kts | 88° |
| 2026-05-07 07:40 | 33.87362 | 10.77094 | 26 ft | 14 kts | 88° |
| 2026-05-07 07:40 | 33.87367 | 10.77201 | 26 ft | 2 kts | 88° |
| 2026-05-07 07:40 | 33.87348 | 10.77235 | 26 ft | 9 kts | 149° |
| 2026-05-07 07:41 | 33.87280 | 10.77250 | 26 ft | 10 kts | 181° |
| 2026-05-07 07:41 | 33.87251 | 10.77241 | 26 ft | 1 kts | 203° |
| 2026-05-07 07:41 | 33.87234 | 10.77228 | 26 ft | 7 kts | 216° |
| 2026-05-07 07:41 | 33.87217 | 10.77216 | 26 ft | 1 kts | 182° |
| 2026-05-07 07:42 | 33.87212 | 10.77228 | 26 ft | 2 kts | 121° |
| 2026-05-07 07:42 | 33.87199 | 10.77246 | 26 ft | 3 kts | 136° |
| 2026-05-07 07:42 | 33.87183 | 10.77262 | 26 ft | 3 kts | 141° |
| 2026-05-07 07:42 | 33.87171 | 10.77273 | 26 ft | 3 kts | 142° |
| 2026-05-07 07:43 | 33.87161 | 10.77283 | 26 ft | 0 kts | 142° |
| 2026-05-07 07:43 | 33.87160 | 10.77283 | 26 ft | 0 kts | 142° |